Time;durP1;ratioP1;P1;durP2;ratioP2;P2;SDS_P1;SDS_P2;PMS_P1;PMS_P2;Temp;Humidity;BMP_temperature;BMP_pressure;BME280_temperature;BME280_humidity;BME280_pressure;Samples;Min_cycle;Max_cycle;Signal;HPM_P1;HPM_P2
2022/03/30 00:01:31;;;;;;;50.57;19.20;;;;;;;;;;5091604;28;20135;-63
2022/03/30 00:03:57;;;;;;;48.20;19.27;;;;;;;;;;5100556;28;20123;-63
2022/03/30 00:06:23;;;;;;;37.70;18.13;;;;;;;;;;5102685;28;20031;-63
2022/03/30 00:08:49;;;;;;;41.77;18.47;;;;;;;;;;5097847;28;20106;-63
2022/03/30 00:11:15;;;;;;;41.97;18.50;;;;;;;;;;5100553;28;20046;-63
2022/03/30 00:13:41;;;;;;;46.07;18.17;;;;;;;;;;5104503;28;20060;-63
2022/03/30 00:16:08;;;;;;;48.13;19.00;;;;;;;;;;5112789;28;20048;-63
2022/03/30 00:18:34;;;;;;;49.33;17.47;;;;;;;;;;5101887;28;20421;-63
2022/03/30 00:21:00;;;;;;;46.70;18.70;;;;;;;;;;5092912;28;20540;-63
2022/03/30 00:23:26;;;;;;;43.73;20.27;;;;;;;;;;5091644;28;20048;-63
2022/03/30 00:25:52;;;;;;;48.07;21.23;;;;;;;;;;5091599;28;20055;-63
2022/03/30 00:28:19;;;;;;;48.30;20.77;;;;;;;;;;5091595;28;20100;-63
2022/03/30 00:30:45;;;;;;;64.67;21.77;;;;;;;;;;5091669;28;20052;-63
2022/03/30 00:33:11;;;;;;;52.70;20.33;;;;;;;;;;5105833;28;20059;-63
2022/03/30 00:35:37;;;;;;;57.07;22.40;;;;;;;;;;5111633;28;20048;-63
2022/03/30 00:38:03;;;;;;;54.70;21.33;;;;;;;;;;5112020;28;20685;-63
2022/03/30 00:40:29;;;;;;;56.50;23.23;;;;;;;;;;5111309;28;20051;-63
2022/03/30 00:42:56;;;;;;;57.63;22.53;;;;;;;;;;5111954;28;20074;-63
2022/03/30 00:45:23;;;;;;;55.13;22.17;;;;;;;;;;5111672;28;20040;-63
2022/03/30 00:47:49;;;;;;;70.57;25.03;;;;;;;;;;5110208;28;20043;-63
2022/03/30 00:50:17;;;;;;;59.57;22.37;;;;;;;;;;5090103;28;20345;-63
2022/03/30 00:52:44;;;;;;;58.63;25.33;;;;;;;;;;5091147;28;20106;-63
2022/03/30 00:55:10;;;;;;;57.47;22.80;;;;;;;;;;5091007;28;20117;-63
2022/03/30 00:57:37;;;;;;;62.20;24.50;;;;;;;;;;5092673;28;20036;-63
2022/03/30 01:00:08;;;;;;;60.63;23.90;;;;;;;;;;5091297;28;20043;-63
2022/03/30 01:02:37;;;;;;;63.07;25.63;;;;;;;;;;5090698;28;20176;-63
2022/03/30 01:05:04;;;;;;;60.43;25.83;;;;;;;;;;5091719;28;20078;-63
2022/03/30 01:07:30;;;;;;;68.00;25.50;;;;;;;;;;5104331;28;20799;-63
2022/03/30 01:09:56;;;;;;;68.50;24.57;;;;;;;;;;5111228;28;20282;-63
2022/03/30 01:12:22;;;;;;;52.10;21.83;;;;;;;;;;5110955;28;20584;-63
2022/03/30 01:14:48;;;;;;;58.83;20.97;;;;;;;;;;5110952;28;20040;-63
2022/03/30 01:17:14;;;;;;;71.93;22.90;;;;;;;;;;5109971;28;20340;-63
2022/03/30 01:19:40;;;;;;;59.53;20.97;;;;;;;;;;5090510;28;20055;-63
2022/03/30 01:22:07;;;;;;;63.03;24.20;;;;;;;;;;5090346;28;20059;-63
2022/03/30 01:24:35;;;;;;;59.73;24.27;;;;;;;;;;5090553;28;20677;-63
2022/03/30 01:27:01;;;;;;;59.27;22.63;;;;;;;;;;5090370;28;20719;-63
2022/03/30 01:32:27;;;;;;;62.10;21.97;;;;;;;;;;5074365;28;20084;-63
2022/03/30 01:34:58;;;;;;;54.17;23.20;;;;;;;;;;5104515;28;20301;-62
2022/03/30 01:37:24;;;;;;;54.07;22.77;;;;;;;;;;5090183;28;20305;-63
2022/03/30 01:39:50;;;;;;;53.07;19.53;;;;;;;;;;5090004;28;20173;-63
2022/03/30 01:42:16;;;;;;;64.77;24.40;;;;;;;;;;5089779;28;20051;-63
2022/03/30 01:44:43;;;;;;;63.33;23.60;;;;;;;;;;5094074;28;20348;-63
2022/03/30 01:47:10;;;;;;;57.57;23.70;;;;;;;;;;5094673;28;20048;-63
2022/03/30 01:49:36;;;;;;;51.63;24.10;;;;;;;;;;5090297;28;20373;-63
2022/03/30 01:52:03;;;;;;;61.53;22.67;;;;;;;;;;5090012;28;20044;-63
2022/03/30 01:54:29;;;;;;;53.27;23.03;;;;;;;;;;5089799;28;20048;-63
2022/03/30 01:56:56;;;;;;;57.27;22.57;;;;;;;;;;5089694;28;20578;-63
2022/03/30 01:59:23;;;;;;;58.67;25.63;;;;;;;;;;5089685;28;20394;-63
2022/03/30 02:01:49;;;;;;;67.13;24.90;;;;;;;;;;5089962;28;20371;-63
2022/03/30 02:04:15;;;;;;;64.60;25.17;;;;;;;;;;5089899;28;20313;-63
2022/03/30 02:06:42;;;;;;;59.03;24.33;;;;;;;;;;5090100;28;20215;-63
2022/03/30 02:09:08;;;;;;;61.87;23.43;;;;;;;;;;5099397;28;20055;-63
2022/03/30 02:11:35;;;;;;;70.07;25.97;;;;;;;;;;5110288;28;20274;-63
2022/03/30 02:14:01;;;;;;;61.13;23.93;;;;;;;;;;5109884;28;20040;-63
2022/03/30 02:16:27;;;;;;;63.33;23.93;;;;;;;;;;5109341;28;20051;-63
2022/03/30 02:18:54;;;;;;;61.03;24.00;;;;;;;;;;5109737;28;20043;-63
2022/03/30 02:21:20;;;;;;;52.90;23.47;;;;;;;;;;5110097;28;20043;-63
2022/03/30 02:23:46;;;;;;;59.83;24.20;;;;;;;;;;5109833;28;20040;-63
2022/03/30 02:26:13;;;;;;;55.40;21.77;;;;;;;;;;5110053;28;20047;-63
2022/03/30 02:28:40;;;;;;;63.60;24.90;;;;;;;;;;5109261;28;20040;-63
2022/03/30 02:31:06;;;;;;;56.93;22.73;;;;;;;;;;5091748;28;20365;-63
2022/03/30 02:33:32;;;;;;;57.07;22.07;;;;;;;;;;5089493;28;20047;-63
2022/03/30 02:35:58;;;;;;;54.97;24.20;;;;;;;;;;5088961;28;20055;-63
2022/03/30 02:38:24;;;;;;;54.53;22.73;;;;;;;;;;5089281;28;20055;-63
2022/03/30 02:40:50;;;;;;;58.57;23.53;;;;;;;;;;5089208;28;20044;-63
2022/03/30 02:43:19;;;;;;;64.10;22.50;;;;;;;;;;5106567;28;20830;-63
2022/03/30 02:45:46;;;;;;;62.77;23.53;;;;;;;;;;5096283;28;20047;-63
2022/03/30 02:48:18;;;;;;;58.70;23.20;;;;;;;;;;5088992;28;20500;-63
2022/03/30 02:50:51;;;;;;;55.87;21.93;;;;;;;;;;5098793;28;20075;-63
2022/03/30 02:53:18;;;;;;;52.50;23.10;;;;;;;;;;5109584;28;20112;-63
2022/03/30 02:55:44;;;;;;;54.60;24.77;;;;;;;;;;5109041;28;20059;-63
2022/03/30 02:58:11;;;;;;;55.00;24.13;;;;;;;;;;5090238;28;20051;-63
2022/03/30 03:00:38;;;;;;;50.83;23.87;;;;;;;;;;5088909;28;20387;-63
2022/03/30 03:03:04;;;;;;;56.33;23.67;;;;;;;;;;5070811;28;20113;-63
2022/03/30 03:05:33;;;;;;;54.10;24.13;;;;;;;;;;5089181;28;20058;-63
2022/03/30 03:08:00;;;;;;;48.57;23.73;;;;;;;;;;5088605;28;20474;-63
2022/03/30 03:10:26;;;;;;;50.90;23.63;;;;;;;;;;5089283;28;20047;-63
2022/03/30 03:12:52;;;;;;;51.27;22.13;;;;;;;;;;5091278;28;20097;-63
2022/03/30 03:15:18;;;;;;;48.60;21.57;;;;;;;;;;5092572;28;20134;-63
2022/03/30 03:17:44;;;;;;;45.23;21.00;;;;;;;;;;5093033;28;20046;-63
2022/03/30 03:20:14;;;;;;;51.10;21.40;;;;;;;;;;5093138;28;20037;-63
2022/03/30 03:22:40;;;;;;;52.33;22.07;;;;;;;;;;5092554;28;20051;-63
2022/03/30 03:25:07;;;;;;;46.70;21.70;;;;;;;;;;5092834;28;20044;-63
2022/03/30 03:27:33;;;;;;;44.67;20.87;;;;;;;;;;5092710;28;20553;-63
2022/03/30 03:29:59;;;;;;;60.87;23.93;;;;;;;;;;5092579;28;20048;-63
2022/03/30 03:32:25;;;;;;;53.50;21.87;;;;;;;;;;5075040;28;20414;-63
2022/03/30 03:34:51;;;;;;;49.87;20.57;;;;;;;;;;5092563;28;20074;-63
2022/03/30 03:37:17;;;;;;;46.90;20.97;;;;;;;;;;5092221;28;20044;-63
2022/03/30 03:39:44;;;;;;;45.23;20.07;;;;;;;;;;5092879;28;20036;-63
2022/03/30 03:42:10;;;;;;;53.33;22.40;;;;;;;;;;5101792;28;20040;-63
2022/03/30 03:44:36;;;;;;;46.47;19.90;;;;;;;;;;5100577;28;20047;-64
2022/03/30 03:47:02;;;;;;;44.70;20.67;;;;;;;;;;5101551;28;20043;-63
2022/03/30 03:49:28;;;;;;;44.80;19.93;;;;;;;;;;5100083;28;20056;-63
2022/03/30 03:51:54;;;;;;;48.97;20.93;;;;;;;;;;5102326;28;20812;-63
2022/03/30 03:54:20;;;;;;;39.00;20.27;;;;;;;;;;5101733;28;20039;-63
2022/03/30 03:56:47;;;;;;;45.90;20.77;;;;;;;;;;5099935;28;20067;-63
2022/03/30 03:59:13;;;;;;;46.77;21.73;;;;;;;;;;5100099;28;20464;-63
2022/03/30 04:01:40;;;;;;;40.67;19.00;;;;;;;;;;5101129;28;20067;-64
2022/03/30 04:04:06;;;;;;;46.80;19.93;;;;;;;;;;5099978;28;20056;-63
2022/03/30 04:06:32;;;;;;;46.00;20.43;;;;;;;;;;5084823;28;20051;-63
2022/03/30 04:08:58;;;;;;;46.37;21.07;;;;;;;;;;5082375;28;20778;-63
2022/03/30 04:11:25;;;;;;;41.97;20.90;;;;;;;;;;5090454;28;20150;-63
2022/03/30 04:13:51;;;;;;;44.53;20.57;;;;;;;;;;5096834;28;20043;-63
2022/03/30 04:16:17;;;;;;;43.77;20.60;;;;;;;;;;5101596;28;20035;-63
2022/03/30 04:18:43;;;;;;;56.73;23.80;;;;;;;;;;5101792;28;20074;-63
2022/03/30 04:21:10;;;;;;;55.17;23.37;;;;;;;;;;5102642;28;20520;-64
2022/03/30 04:23:36;;;;;;;44.17;22.40;;;;;;;;;;5107515;28;20042;-63
2022/03/30 04:26:03;;;;;;;43.43;20.57;;;;;;;;;;5111471;28;20043;-63
2022/03/30 04:28:29;;;;;;;47.87;20.73;;;;;;;;;;5112139;28;20043;-63
2022/03/30 04:30:55;;;;;;;48.20;20.60;;;;;;;;;;5112033;28;20043;-63
2022/03/30 04:33:21;;;;;;;40.83;19.83;;;;;;;;;;5105061;28;20044;-64
2022/03/30 04:35:47;;;;;;;43.17;19.67;;;;;;;;;;5090846;28;20100;-63
2022/03/30 04:38:14;;;;;;;45.83;20.47;;;;;;;;;;5091551;28;20084;-63
2022/03/30 04:40:40;;;;;;;44.90;20.43;;;;;;;;;;5091581;28;20052;-63
2022/03/30 04:43:07;;;;;;;40.77;20.60;;;;;;;;;;5091272;28;20084;-63
2022/03/30 04:45:33;;;;;;;39.57;19.20;;;;;;;;;;5091038;28;20548;-63
2022/03/30 04:48:02;;;;;;;50.63;20.57;;;;;;;;;;5091677;28;20395;-64
2022/03/30 04:50:28;;;;;;;40.03;19.37;;;;;;;;;;5091111;28;20044;-63
2022/03/30 04:52:55;;;;;;;48.57;20.13;;;;;;;;;;5090992;28;20055;-64
2022/03/30 04:55:21;;;;;;;39.37;19.07;;;;;;;;;;5091251;28;20048;-63
2022/03/30 04:57:47;;;;;;;36.37;18.60;;;;;;;;;;5099202;28;20036;-64
2022/03/30 05:00:13;;;;;;;42.73;19.17;;;;;;;;;;5102800;28;20048;-63
2022/03/30 05:02:40;;;;;;;36.60;16.93;;;;;;;;;;5106454;28;20048;-63
2022/03/30 05:05:11;;;;;;;39.10;19.33;;;;;;;;;;5100945;28;20048;-64
2022/03/30 05:07:38;;;;;;;44.87;19.07;;;;;;;;;;5111720;28;20425;-63
2022/03/30 05:10:09;;;;;;;38.30;16.90;;;;;;;;;;5111239;28;20126;-63
2022/03/30 05:12:35;;;;;;;39.87;17.80;;;;;;;;;;5104379;28;20375;-63
2022/03/30 05:15:01;;;;;;;38.60;17.77;;;;;;;;;;5090995;28;20055;-63
2022/03/30 05:17:27;;;;;;;39.63;16.73;;;;;;;;;;5090499;28;20425;-63
2022/03/30 05:19:53;;;;;;;38.77;17.50;;;;;;;;;;5090691;28;20408;-63
2022/03/30 05:22:19;;;;;;;43.20;18.80;;;;;;;;;;5090440;28;20039;-63
2022/03/30 05:24:45;;;;;;;43.30;19.37;;;;;;;;;;5090070;28;20055;-63
2022/03/30 05:27:11;;;;;;;39.63;19.17;;;;;;;;;;5090658;28;20043;-63
2022/03/30 05:29:37;;;;;;;42.93;16.67;;;;;;;;;;5092509;28;20040;-63
2022/03/30 05:32:04;;;;;;;40.00;18.70;;;;;;;;;;5095203;28;20703;-63
2022/03/30 05:34:30;;;;;;;43.70;19.07;;;;;;;;;;5091837;28;20059;-64
2022/03/30 05:36:58;;;;;;;35.67;17.87;;;;;;;;;;5099551;28;20063;-63
2022/03/30 05:39:24;;;;;;;44.20;18.27;;;;;;;;;;5090263;28;20047;-64
2022/03/30 05:41:52;;;;;;;35.13;15.33;;;;;;;;;;5108339;28;20093;-64
2022/03/30 05:44:18;;;;;;;43.17;17.07;;;;;;;;;;5110519;28;20052;-64
2022/03/30 05:46:44;;;;;;;34.83;15.00;;;;;;;;;;5103663;28;20044;-64
2022/03/30 05:49:10;;;;;;;33.10;15.23;;;;;;;;;;5093859;28;20044;-64
2022/03/30 05:51:36;;;;;;;34.23;16.07;;;;;;;;;;5096608;28;20490;-64
2022/03/30 05:54:02;;;;;;;35.93;15.80;;;;;;;;;;5098073;28;20051;-64
2022/03/30 05:59:15;;;;;;;37.70;15.47;;;;;;;;;;5097041;28;20040;-64
2022/03/30 06:01:41;;;;;;;31.30;14.30;;;;;;;;;;5093029;28;20051;-64
2022/03/30 06:04:07;;;;;;;29.40;13.03;;;;;;;;;;5105514;28;20050;-64
2022/03/30 06:06:34;;;;;;;29.40;12.53;;;;;;;;;;5110532;28;20048;-64
2022/03/30 06:09:00;;;;;;;32.07;12.70;;;;;;;;;;5110751;28;20040;-64
2022/03/30 06:11:26;;;;;;;21.07;11.93;;;;;;;;;;5110992;28;20044;-64
2022/03/30 06:13:52;;;;;;;24.87;12.17;;;;;;;;;;5105075;28;20122;-64
2022/03/30 06:16:18;;;;;;;17.97;9.10;;;;;;;;;;5090300;28;20127;-64
2022/03/30 06:18:44;;;;;;;22.40;9.33;;;;;;;;;;5090055;28;20177;-64
2022/03/30 06:21:11;;;;;;;17.07;8.47;;;;;;;;;;5090093;28;20409;-64
2022/03/30 06:23:37;;;;;;;21.27;7.53;;;;;;;;;;5090159;28;20448;-64
2022/03/30 06:26:05;;;;;;;16.30;7.20;;;;;;;;;;5089947;28;20040;-64
2022/03/30 06:28:31;;;;;;;14.97;6.63;;;;;;;;;;5097768;28;20416;-63
2022/03/30 06:30:57;;;;;;;11.67;5.17;;;;;;;;;;5089720;28;20069;-64
2022/03/30 06:33:23;;;;;;;8.63;4.60;;;;;;;;;;5097935;28;20560;-64
2022/03/30 06:35:49;;;;;;;12.43;4.77;;;;;;;;;;5099680;28;20139;-64
2022/03/30 06:38:15;;;;;;;5.97;3.90;;;;;;;;;;5098351;28;20043;-64
2022/03/30 06:40:47;;;;;;;7.40;3.47;;;;;;;;;;5098834;28;20035;-64
2022/03/30 06:43:14;;;;;;;6.07;2.70;;;;;;;;;;5080838;28;20516;-64
2022/03/30 06:45:40;;;;;;;4.30;2.03;;;;;;;;;;5098732;28;20074;-64
2022/03/30 06:48:06;;;;;;;7.67;2.47;;;;;;;;;;5097463;28;20040;-64
2022/03/30 06:50:33;;;;;;;5.43;2.00;;;;;;;;;;5097445;28;20044;-64
2022/03/30 06:53:00;;;;;;;4.23;2.67;;;;;;;;;;5080768;28;20474;-64
2022/03/30 06:55:26;;;;;;;4.93;2.20;;;;;;;;;;5099710;28;20044;-62
2022/03/30 06:57:52;;;;;;;6.53;3.73;;;;;;;;;;5097707;28;20048;-62
2022/03/30 07:00:18;;;;;;;6.50;3.57;;;;;;;;;;5099181;28;20048;-62
2022/03/30 07:02:45;;;;;;;5.87;3.20;;;;;;;;;;5099056;28;20094;-62
2022/03/30 07:05:11;;;;;;;6.60;4.00;;;;;;;;;;5096994;28;20051;-62
2022/03/30 07:10:23;;;;;;;5.37;3.90;;;;;;;;;;5096904;28;20039;-61
2022/03/30 07:12:50;;;;;;;6.03;3.80;;;;;;;;;;5080726;28;20044;-63
2022/03/30 07:15:17;;;;;;;6.93;3.93;;;;;;;;;;5088650;28;20151;-64
2022/03/30 07:17:47;;;;;;;6.20;3.77;;;;;;;;;;5089627;28;20036;-64
2022/03/30 07:20:14;;;;;;;6.10;3.63;;;;;;;;;;5097082;28;20508;-63
2022/03/30 07:22:41;;;;;;;5.40;3.20;;;;;;;;;;5098629;28;20155;-62
2022/03/30 07:25:07;;;;;;;4.97;3.53;;;;;;;;;;5099139;28;20052;-63
2022/03/30 07:27:33;;;;;;;4.90;3.23;;;;;;;;;;5097406;28;20044;-63
2022/03/30 07:29:59;;;;;;;5.17;2.97;;;;;;;;;;5080577;28;20150;-63
2022/03/30 07:32:25;;;;;;;6.13;2.67;;;;;;;;;;5088067;28;20032;-63
2022/03/30 07:34:53;;;;;;;5.37;2.33;;;;;;;;;;5088502;28;20052;-63
2022/03/30 07:37:20;;;;;;;4.40;2.53;;;;;;;;;;5097270;28;20052;-63
2022/03/30 07:39:46;;;;;;;3.83;2.77;;;;;;;;;;5097967;28;20048;-63
2022/03/30 07:42:12;;;;;;;3.70;2.23;;;;;;;;;;5099525;28;20077;-63
2022/03/30 07:44:38;;;;;;;3.37;2.10;;;;;;;;;;5098847;28;20039;-63
2022/03/30 07:47:05;;;;;;;4.53;2.10;;;;;;;;;;5098683;28;20036;-63
2022/03/30 07:49:31;;;;;;;3.33;1.87;;;;;;;;;;5096800;28;20110;-63
2022/03/30 07:52:00;;;;;;;3.20;1.70;;;;;;;;;;5098268;28;20119;-63
2022/03/30 07:54:26;;;;;;;3.30;1.40;;;;;;;;;;5077200;28;20089;-63
2022/03/30 07:56:52;;;;;;;2.20;1.30;;;;;;;;;;5089337;28;20101;-63
2022/03/30 07:59:18;;;;;;;3.47;2.20;;;;;;;;;;5098541;28;20130;-63
2022/03/30 08:01:44;;;;;;;5.47;2.60;;;;;;;;;;5113557;28;20127;-64
2022/03/30 08:04:10;;;;;;;2.97;2.17;;;;;;;;;;5112627;28;20138;-64
2022/03/30 08:06:36;;;;;;;3.63;2.13;;;;;;;;;;5092549;28;20047;-64
2022/03/30 08:09:03;;;;;;;3.67;1.50;;;;;;;;;;5092502;28;20098;-63
2022/03/30 08:11:29;;;;;;;3.50;1.90;;;;;;;;;;5101095;28;20071;-64
2022/03/30 08:13:56;;;;;;;4.80;1.60;;;;;;;;;;5106116;28;20454;-64
2022/03/30 08:16:22;;;;;;;3.30;1.40;;;;;;;;;;5100379;28;20123;-63
2022/03/30 08:18:48;;;;;;;3.13;1.30;;;;;;;;;;5101617;28;20516;-63
2022/03/30 08:23:59;;;;;;;3.50;1.40;;;;;;;;;;5102608;28;20420;-63
2022/03/30 08:26:25;;;;;;;3.17;1.67;;;;;;;;;;5103137;28;20043;-64
2022/03/30 08:28:51;;;;;;;2.80;1.40;;;;;;;;;;5112635;28;20499;-63
2022/03/30 08:31:17;;;;;;;2.73;1.37;;;;;;;;;;5112980;28;20456;-63
2022/03/30 08:33:43;;;;;;;2.63;1.30;;;;;;;;;;5094140;28;20054;-63
2022/03/30 08:36:09;;;;;;;3.90;1.37;;;;;;;;;;5092018;28;20066;-63
2022/03/30 08:38:35;;;;;;;2.70;1.17;;;;;;;;;;5092797;28;20047;-64
2022/03/30 08:41:02;;;;;;;4.97;1.67;;;;;;;;;;5099679;28;20054;-63
2022/03/30 08:43:29;;;;;;;4.17;1.80;;;;;;;;;;5112381;28;20074;-64
2022/03/30 08:45:58;;;;;;;3.87;1.30;;;;;;;;;;5112660;28;20101;-64
2022/03/30 08:48:24;;;;;;;2.30;1.70;;;;;;;;;;5112192;28;20059;-63
2022/03/30 08:50:50;;;;;;;5.20;1.87;;;;;;;;;;5112412;28;20040;-64
2022/03/30 08:53:18;;;;;;;5.03;1.87;;;;;;;;;;5112357;28;20178;-63
2022/03/30 08:55:44;;;;;;;4.47;1.80;;;;;;;;;;5104086;28;20036;-63
2022/03/30 08:58:10;;;;;;;4.23;1.37;;;;;;;;;;5091772;28;20484;-64
2022/03/30 09:00:36;;;;;;;3.97;1.43;;;;;;;;;;5092056;28;20040;-64
2022/03/30 09:03:03;;;;;;;3.83;1.70;;;;;;;;;;5091399;28;20078;-64
2022/03/30 09:05:29;;;;;;;3.13;1.50;;;;;;;;;;5091814;28;20131;-64
2022/03/30 09:08:07;;;;;;;4.40;1.70;;;;;;;;;;5091750;28;20131;-64
2022/03/30 09:10:35;;;;;;;5.77;1.50;;;;;;;;;;5096065;28;20097;-63
2022/03/30 09:13:01;;;;;;;3.87;1.53;;;;;;;;;;5112104;28;20130;-64
2022/03/30 09:15:28;;;;;;;4.13;1.90;;;;;;;;;;5111082;28;20122;-64
2022/03/30 09:17:59;;;;;;;4.50;2.10;;;;;;;;;;5109928;28;20467;-64
2022/03/30 09:20:25;;;;;;;4.57;2.10;;;;;;;;;;5095945;28;20513;-63
2022/03/30 09:22:53;;;;;;;3.80;2.23;;;;;;;;;;5073503;28;20071;-64
2022/03/30 09:25:19;;;;;;;6.77;2.30;;;;;;;;;;5091374;28;20577;-64
2022/03/30 09:27:46;;;;;;;7.73;2.87;;;;;;;;;;5102331;28;20134;-64
2022/03/30 09:30:15;;;;;;;3.80;2.27;;;;;;;;;;5111911;28;20050;-64
2022/03/30 09:32:41;;;;;;;5.20;2.63;;;;;;;;;;5077254;28;20058;-64
2022/03/30 09:35:28;;;;;;;3.43;2.03;;;;;;;;;;5091064;28;20414;-64
2022/03/30 09:38:05;;;;;;;6.17;2.83;;;;;;;;;;5096207;28;20459;-65
2022/03/30 09:40:40;;;;;;;4.53;2.50;;;;;;;;;;5096642;28;20044;-61
2022/03/30 09:43:10;;;;;;;4.53;2.50;;;;;;;;;;5103432;28;20054;-61
2022/03/30 09:45:36;;;;;;;4.07;1.97;;;;;;;;;;5108987;28;20302;-61
2022/03/30 09:48:35;;;;;;;5.57;2.13;;;;;;;;;;5110716;28;20565;-64
2022/03/30 09:51:03;;;;;;;4.23;1.77;;;;;;;;;;5050647;28;20093;-64
2022/03/30 09:53:30;;;;;;;3.50;1.60;;;;;;;;;;5100532;28;20149;-64
2022/03/30 09:56:00;;;;;;;4.83;2.17;;;;;;;;;;5072913;28;20047;-61
2022/03/30 09:58:27;;;;;;;6.17;1.80;;;;;;;;;;5090649;28;20410;-64
2022/03/30 10:01:09;;;;;;;3.30;1.27;;;;;;;;;;5099092;28;20139;-64
2022/03/30 10:03:56;;;;;;;3.40;1.30;;;;;;;;;;5098644;28;20052;-64
2022/03/30 10:06:24;;;;;;;2.97;1.40;;;;;;;;;;5086772;28;20082;-64
2022/03/30 10:08:50;;;;;;;3.07;1.70;;;;;;;;;;5100289;28;20036;-63
2022/03/30 10:11:17;;;;;;;2.70;1.33;;;;;;;;;;5106946;28;20090;-65
2022/03/30 10:13:44;;;;;;;3.87;1.70;;;;;;;;;;5104357;28;20047;-64
2022/03/30 10:16:10;;;;;;;3.27;1.47;;;;;;;;;;5110804;28;20122;-64
2022/03/30 10:18:37;;;;;;;4.70;2.00;;;;;;;;;;5110702;28;20047;-66
2022/03/30 10:21:22;;;;;;;3.97;1.97;;;;;;;;;;5109849;28;20127;-65
2022/03/30 10:24:00;;;;;;;5.13;1.70;;;;;;;;;;5110147;28;20100;-66
2022/03/30 10:26:31;;;;;;;8.00;2.33;;;;;;;;;;5076480;28;20044;-65
2022/03/30 10:28:59;;;;;;;7.27;1.90;;;;;;;;;;5090256;28;20039;-63
2022/03/30 10:31:26;;;;;;;3.93;1.73;;;;;;;;;;5099258;28;20043;-66
2022/03/30 10:33:53;;;;;;;5.50;2.77;;;;;;;;;;5091936;28;20625;-64
2022/03/30 10:36:24;;;;;;;4.17;1.70;;;;;;;;;;5095898;28;20083;-64
2022/03/30 10:39:07;;;;;;;3.67;1.30;;;;;;;;;;5091466;28;20054;-64
2022/03/30 10:41:48;;;;;;;4.90;1.43;;;;;;;;;;5090819;28;20054;-64
2022/03/30 10:44:37;;;;;;;2.33;0.87;;;;;;;;;;5092502;28;20047;-65
2022/03/30 10:47:22;;;;;;;1.97;0.90;;;;;;;;;;5087222;28;20056;-65
2022/03/30 10:49:54;;;;;;;4.07;0.87;;;;;;;;;;5098333;28;20064;-65
2022/03/30 10:52:26;;;;;;;4.67;0.97;;;;;;;;;;5101277;28;20086;-65
2022/03/30 10:55:12;;;;;;;9.57;1.27;;;;;;;;;;5109479;28;20524;-65
2022/03/30 10:57:50;;;;;;;3.07;0.90;;;;;;;;;;5089573;28;20099;-65
2022/03/30 11:00:23;;;;;;;4.10;0.93;;;;;;;;;;5089470;28;20047;-64
2022/03/30 11:02:50;;;;;;;4.07;0.70;;;;;;;;;;5089919;28;20401;-65
2022/03/30 11:05:17;;;;;;;4.00;1.07;;;;;;;;;;5104647;28;20081;-65
2022/03/30 11:07:43;;;;;;;1.20;0.50;;;;;;;;;;5081504;28;20040;-65
2022/03/30 11:10:15;;;;;;;2.97;0.70;;;;;;;;;;5106142;28;20082;-64
2022/03/30 11:13:02;;;;;;;3.40;0.70;;;;;;;;;;5105243;28;20451;-64
2022/03/30 11:15:29;;;;;;;3.73;0.70;;;;;;;;;;5093719;28;20056;-64
2022/03/30 11:18:00;;;;;;;3.20;0.70;;;;;;;;;;5102413;28;20040;-64
2022/03/30 11:20:26;;;;;;;4.07;0.87;;;;;;;;;;5097858;28;20407;-64
2022/03/30 11:22:52;;;;;;;3.43;0.73;;;;;;;;;;5096741;28;20035;-65
2022/03/30 11:25:23;;;;;;;3.37;0.87;;;;;;;;;;5094772;28;20047;-64
2022/03/30 11:27:59;;;;;;;4.13;0.80;;;;;;;;;;5098303;28;20412;-64
2022/03/30 11:30:29;;;;;;;1.80;0.80;;;;;;;;;;5097031;28;20047;-64
2022/03/30 11:33:00;;;;;;;2.60;0.83;;;;;;;;;;5098414;28;20489;-64
2022/03/30 11:35:31;;;;;;;2.43;0.90;;;;;;;;;;5102586;28;20134;-64
2022/03/30 11:38:00;;;;;;;3.70;1.07;;;;;;;;;;5107288;28;20053;-64
2022/03/30 11:40:26;;;;;;;3.60;0.70;;;;;;;;;;5095596;28;20135;-64
2022/03/30 11:43:01;;;;;;;2.63;0.90;;;;;;;;;;5083767;28;20205;-64
2022/03/30 11:45:29;;;;;;;3.40;1.10;;;;;;;;;;5100723;28;20036;-65
2022/03/30 11:48:12;;;;;;;3.10;1.53;;;;;;;;;;5108391;28;20172;-65
2022/03/30 11:50:38;;;;;;;2.85;0.80;;;;;;;;;;5089979;28;20409;-65
2022/03/30 11:53:05;;;;;;;2.83;0.67;;;;;;;;;;5093163;28;20048;-65
2022/03/30 11:55:32;;;;;;;3.60;1.13;;;;;;;;;;5092406;28;20078;-64
2022/03/30 11:58:00;;;;;;;3.10;1.23;;;;;;;;;;5091901;28;20040;-65
2022/03/30 12:00:28;;;;;;;2.13;0.70;;;;;;;;;;5091215;28;20119;-65
2022/03/30 12:02:57;;;;;;;2.73;1.00;;;;;;;;;;5108165;28;20096;-65
2022/03/30 12:05:24;;;;;;;3.47;0.80;;;;;;;;;;5108119;28;20054;-65
2022/03/30 12:07:54;;;;;;;4.23;1.67;;;;;;;;;;5102248;28;20054;-64
2022/03/30 12:10:20;;;;;;;3.87;1.30;;;;;;;;;;5093880;28;20123;-65
2022/03/30 12:12:49;;;;;;;5.20;1.20;;;;;;;;;;5095147;28;20040;-64
2022/03/30 12:15:16;;;;;;;3.63;0.93;;;;;;;;;;5098950;28;20036;-64
2022/03/30 12:17:43;;;;;;;4.57;1.10;;;;;;;;;;5096831;28;20036;-64
2022/03/30 12:20:10;;;;;;;4.17;0.90;;;;;;;;;;5112721;28;20047;-64
2022/03/30 12:22:37;;;;;;;2.60;0.90;;;;;;;;;;5108814;28;20134;-64
2022/03/30 12:25:15;;;;;;;5.20;0.90;;;;;;;;;;5099102;28;20032;-64
2022/03/30 12:27:41;;;;;;;6.77;1.00;;;;;;;;;;5096730;28;20036;-65
2022/03/30 12:30:07;;;;;;;6.40;1.07;;;;;;;;;;5092837;28;20062;-63
2022/03/30 12:32:33;;;;;;;2.87;0.90;;;;;;;;;;5074414;28;20048;-63
2022/03/30 12:35:13;;;;;;;4.93;1.30;;;;;;;;;;5092838;28;20044;-63
2022/03/30 12:37:43;;;;;;;3.07;0.80;;;;;;;;;;5092749;28;20061;-63
2022/03/30 12:40:13;;;;;;;3.20;1.63;;;;;;;;;;5094716;28;20077;-63
2022/03/30 12:42:40;;;;;;;4.63;1.10;;;;;;;;;;5096866;28;20542;-63
2022/03/30 12:45:11;;;;;;;3.27;0.90;;;;;;;;;;5097604;28;20062;-63
2022/03/30 12:47:38;;;;;;;6.33;1.07;;;;;;;;;;5091308;28;20466;-63
2022/03/30 12:50:07;;;;;;;3.37;1.00;;;;;;;;;;5091332;28;20118;-63
2022/03/30 12:52:41;;;;;;;3.97;1.30;;;;;;;;;;5091173;28;20612;-64
2022/03/30 12:55:13;;;;;;;4.38;1.20;;;;;;;;;;5092243;28;20051;-63
2022/03/30 12:57:48;;;;;;;3.50;0.77;;;;;;;;;;5091237;28;20043;-63
2022/03/30 13:00:19;;;;;;;2.73;0.83;;;;;;;;;;5097681;28;20036;-64
2022/03/30 13:02:45;;;;;;;4.17;0.73;;;;;;;;;;5087707;28;20051;-64
2022/03/30 13:05:21;;;;;;;2.87;1.13;;;;;;;;;;5101381;28;20101;-63
2022/03/30 13:07:51;;;;;;;3.37;0.80;;;;;;;;;;5093890;28;20040;-63
2022/03/30 13:10:19;;;;;;;4.80;0.90;;;;;;;;;;5091469;28;20569;-63
2022/03/30 13:12:46;;;;;;;4.60;1.00;;;;;;;;;;5076210;28;20039;-63
2022/03/30 13:15:14;;;;;;;2.80;0.80;;;;;;;;;;5093689;28;20621;-63
2022/03/30 13:17:59;;;;;;;2.10;0.93;;;;;;;;;;5101725;28;20047;-63
2022/03/30 13:20:26;;;;;;;2.93;0.90;;;;;;;;;;5099061;28;20119;-63
2022/03/30 13:22:56;;;;;;;4.60;1.17;;;;;;;;;;5100511;28;20082;-63
2022/03/30 13:25:32;;;;;;;6.10;0.90;;;;;;;;;;5094378;28;20040;-64
2022/03/30 13:27:59;;;;;;;6.47;1.20;;;;;;;;;;5094256;28;20051;-63
2022/03/30 13:30:26;;;;;;;3.83;1.20;;;;;;;;;;5103654;28;20128;-63
2022/03/30 13:32:53;;;;;;;2.47;0.80;;;;;;;;;;5100659;28;20607;-63
2022/03/30 13:35:19;;;;;;;2.57;1.00;;;;;;;;;;5094963;28;20133;-63
2022/03/30 13:37:45;;;;;;;3.93;1.07;;;;;;;;;;5093021;28;20048;-63
2022/03/30 13:40:11;;;;;;;2.37;0.67;;;;;;;;;;5072562;28;20054;-63
2022/03/30 13:42:37;;;;;;;3.90;0.90;;;;;;;;;;5081880;28;20051;-63
2022/03/30 13:45:04;;;;;;;3.13;1.00;;;;;;;;;;5092321;28;20401;-63
2022/03/30 13:47:30;;;;;;;3.90;1.10;;;;;;;;;;5089800;28;20036;-63
2022/03/30 13:49:56;;;;;;;3.23;0.70;;;;;;;;;;5089236;28;20048;-63
2022/03/30 13:52:24;;;;;;;2.73;1.30;;;;;;;;;;5104892;28;20047;-64
2022/03/30 13:54:51;;;;;;;2.63;0.90;;;;;;;;;;5102772;28;20048;-64
2022/03/30 13:57:17;;;;;;;6.00;0.87;;;;;;;;;;5090666;28;20040;-64
2022/03/30 13:59:44;;;;;;;4.80;0.83;;;;;;;;;;5098045;28;20556;-64
2022/03/30 14:02:11;;;;;;;2.10;0.70;;;;;;;;;;5090457;28;20055;-64
2022/03/30 14:04:37;;;;;;;3.17;0.63;;;;;;;;;;5093674;28;20616;-64
2022/03/30 14:07:04;;;;;;;4.27;1.23;;;;;;;;;;5089891;28;20127;-64
2022/03/30 14:09:33;;;;;;;3.57;1.10;;;;;;;;;;5091036;28;20059;-64
2022/03/30 14:11:59;;;;;;;3.70;0.70;;;;;;;;;;5110483;28;20043;-64
2022/03/30 14:14:25;;;;;;;3.57;1.10;;;;;;;;;;5093248;28;20150;-64
2022/03/30 14:16:52;;;;;;;3.10;1.10;;;;;;;;;;5088846;28;20044;-64
2022/03/30 14:19:20;;;;;;;4.10;0.83;;;;;;;;;;5090420;28;20086;-64
2022/03/30 14:21:46;;;;;;;2.10;0.90;;;;;;;;;;5089591;28;20071;-63
2022/03/30 14:24:12;;;;;;;3.23;1.00;;;;;;;;;;5071916;28;20418;-64
2022/03/30 14:26:39;;;;;;;2.90;1.00;;;;;;;;;;5090169;28;20483;-64
2022/03/30 14:29:06;;;;;;;4.07;1.10;;;;;;;;;;5089765;28;20076;-63
2022/03/30 14:31:32;;;;;;;4.57;1.10;;;;;;;;;;5071854;28;20520;-63
2022/03/30 14:33:58;;;;;;;6.47;2.40;;;;;;;;;;5089614;28;20075;-63
2022/03/30 14:36:24;;;;;;;3.63;1.00;;;;;;;;;;5089581;28;20091;-63
2022/03/30 14:38:50;;;;;;;3.03;1.00;;;;;;;;;;5090015;28;20052;-63
2022/03/30 14:41:17;;;;;;;2.60;0.80;;;;;;;;;;5103899;28;20044;-63
2022/03/30 14:43:43;;;;;;;1.80;0.70;;;;;;;;;;5102142;28;20091;-64
2022/03/30 14:46:09;;;;;;;2.53;0.97;;;;;;;;;;5110099;28;20409;-64